CST,Max TemperatureF,Mean TemperatureF,Min TemperatureF,Max Dew PointF,MeanDew PointF,Min DewpointF,Max Humidity, Mean Humidity, Min Humidity, Max Sea Level PressureIn, Mean Sea Level PressureIn, Min Sea Level PressureIn, Max VisibilityMiles, Mean VisibilityMiles, Min VisibilityMiles, Max Wind SpeedMPH, Mean Wind SpeedMPH, Max Gust SpeedMPH,PrecipitationIn, CloudCover, Events, WindDirDegrees
2013-1-1,14,3,-9,10,0,-14,92,78,63,30.27,30.14,29.93,10,8,2,22,9,24,T,5,Snow,268
2013-1-2,20,17,13,17,15,10,92,88,84,30.05,29.96,29.87,8,3,2,14,7,16,T,8,Snow,207
2013-1-3,21,17,12,18,9,3,91,70,49,30.19,30.07,29.92,10,9,3,28,15,36,T,4,Snow,288
2013-1-4,34,24,13,19,14,10,88,70,51,30.16,30.03,29.92,10,10,10,18,10,25,0.00,0,,289
2013-1-5,28,18,8,20,15,7,92,80,68,30.12,29.98,29.82,10,8,0,15,6,17,0.00,4,Fog,68
2013-1-6,22,18,14,16,9,5,88,72,56,30.20,30.10,29.97,10,10,9,15,8,21,T,4,Snow,280
2013-1-7,39,27,14,23,18,7,81,68,54,29.97,29.83,29.69,10,10,10,23,16,37,0.00,1,,240
2013-1-8,33,23,13,27,20,10,92,82,72,30.00,29.85,29.66,10,9,1,21,8,25,T,4,,180
2013-1-9,32,28,23,25,19,15,80,67,51,30.32,30.04,29.70,10,10,9,33,18,47,0.00,5,Snow,259
2013-1-10,42,32,22,31,21,15,89,63,36,30.33,30.04,29.71,10,8,2,23,12,32,0.28,4,Rain,155
2013-1-11,38,36,33,37,34,30,100,95,89,29.74,29.51,29.29,3,1,0,15,7,18,0.35,8,Fog-Rain,137
2013-1-12,39,23,6,37,14,-2,100,84,67,30.05,29.66,29.28,10,4,1,30,14,35,0.02,8,Rain-Snow,273
2013-1-13,9,5,1,1,-2,-5,87,78,69,30.19,30.07,29.94,10,7,1,15,9,18,0.03,5,Snow,310
2013-1-14,10,6,2,0,-2,-6,83,70,57,30.36,30.30,30.12,10,9,3,18,9,22,T,5,Snow,269
2013-1-15,24,15,6,12,5,0,88,70,52,30.27,30.09,29.70,10,7,2,24,13,33,T,5,Snow,222
2013-1-16,26,13,0,23,11,-10,88,69,49,30.26,29.72,29.47,10,7,2,25,15,33,0.03,6,Snow,279
2013-1-17,9,3,-4,-4,-7,-12,79,68,57,30.41,30.35,30.27,10,8,2,16,7,20,T,4,Snow,282
2013-1-18,19,11,3,16,10,-3,92,84,76,30.31,29.89,29.71,10,4,0,15,6,22,0.32,8,Fog-Snow,115
2013-1-19,29,14,-2,23,9,-10,91,76,60,30.16,29.73,29.53,10,5,0,33,14,44,T,7,Snow,284
2013-1-20,0,-5,-11,-11,-13,-18,79,66,53,30.36,30.26,30.13,10,8,2,17,11,25,T,3,Snow,291
2013-1-21,-10,-14,-19,-20,-24,-27,70,60,50,30.30,30.21,30.08,10,8,2,22,13,29,T,3,Snow,297
2013-1-22,-2,-11,-21,-13,-19,-26,78,67,56,30.38,30.32,30.23,10,10,10,15,10,20,0.00,1,,277
2013-1-23,5,-4,-14,-4,-12,-22,79,65,51,30.66,30.24,30.00,10,7,1,25,12,35,0.01,5,Snow,308
2013-1-24,4,-8,-21,-1,-12,-26,86,70,53,30.73,30.47,30.19,10,7,1,16,7,21,0.06,5,Snow,139
2013-1-25,14,7,0,5,2,-5,88,76,63,30.30,30.00,29.81,10,6,1,17,10,22,0.10,7,Snow,246
2013-1-26,17,3,-12,7,-1,-17,82,72,61,30.40,30.31,30.20,10,10,10,14,6,18,0.00,4,,129
2013-1-27,29,21,13,27,18,5,92,77,61,30.19,29.97,29.81,10,7,1,15,9,20,0.11,5,Snow,113
2013-1-28,30,26,22,28,26,19,100,93,85,29.93,29.82,29.65,8,2,0,13,4,14,0.04,8,Fog-Snow,122
2013-1-29,32,27,21,28,26,16,92,80,68,29.78,29.61,29.48,10,6,0,20,9,28,0.04,8,Fog-Rain-Snow,347
2013-1-30,21,13,5,18,5,-2,84,73,61,29.76,29.68,29.55,10,7,3,22,14,30,T,7,Snow,333
2013-1-31,5,-3,-12,-2,-8,-19,79,71,62,30.20,29.90,29.65,10,6,2,21,16,31,T,6,Snow,318